Time;durP1;ratioP1;P1;durP2;ratioP2;P2;SDS_P1;SDS_P2;PMS_P1;PMS_P2;Temp;Humidity;BMP_temperature;BMP_pressure;BME280_temperature;BME280_humidity;BME280_pressure;Samples;Min_cycle;Max_cycle;Signal;HPM_P1;HPM_P2
2022/04/12 00:01:34;;;;;;;4.27;2.47;;;13.10;51.90;;;;;;4972362;28;20203;-77
2022/04/12 00:04:01;;;;;;;3.75;1.92;;;13.10;52.60;;;;;;4955192;28;21059;-77
2022/04/12 00:06:27;;;;;;;3.40;1.90;;;13.10;52.10;;;;;;4972659;28;20504;-76
2022/04/12 00:08:52;;;;;;;2.80;1.90;;;13.10;51.90;;;;;;4971090;28;20176;-76
2022/04/12 00:11:18;;;;;;;4.57;2.33;;;13.10;52.40;;;;;;4971116;28;20583;-76
2022/04/12 00:13:44;;;;;;;3.13;2.00;;;13.10;52.20;;;;;;4972406;28;20650;-76
2022/04/12 00:16:10;;;;;;;3.87;1.80;;;13.10;52.10;;;;;;4972469;28;20255;-76
2022/04/12 00:21:19;;;;;;;4.00;2.03;;;13.10;52.70;;;;;;4970826;28;20629;-76
2022/04/12 00:23:46;;;;;;;3.43;2.13;;;13.00;52.00;;;;;;4972475;28;20270;-76
2022/04/12 00:26:13;;;;;;;3.10;2.22;;;13.00;52.10;;;;;;4955100;28;20622;-76
2022/04/12 00:28:41;;;;;;;5.00;2.55;;;13.00;52.10;;;;;;4970852;28;20160;-76
2022/04/12 00:31:07;;;;;;;2.92;2.13;;;13.00;52.40;;;;;;4970807;28;20598;-77
2022/04/12 00:33:33;;;;;;;4.18;1.70;;;13.00;52.30;;;;;;4972230;28;20195;-76
2022/04/12 00:36:00;;;;;;;4.43;1.70;;;13.00;52.10;;;;;;4972369;28;20171;-76
2022/04/12 00:38:27;;;;;;;3.78;2.95;;;12.90;52.30;;;;;;4973857;28;20575;-76
2022/04/12 00:40:54;;;;;;;3.80;2.42;;;13.00;52.10;;;;;;4974515;28;20676;-76
2022/04/12 00:43:25;;;;;;;3.40;2.55;;;13.00;52.30;;;;;;4974905;28;20704;-76
2022/04/12 00:45:51;;;;;;;5.45;2.47;;;12.90;53.20;;;;;;4975930;28;20683;-76
2022/04/12 00:48:17;;;;;;;5.65;2.75;;;12.90;52.50;;;;;;4974487;28;20174;-76
2022/04/12 00:50:44;;;;;;;2.87;2.13;;;12.90;52.40;;;;;;4976131;28;20175;-76
2022/04/12 00:53:10;;;;;;;2.95;2.42;;;12.90;52.50;;;;;;4975015;28;20203;-76
2022/04/12 00:55:36;;;;;;;5.00;1.87;;;12.90;53.10;;;;;;4975008;28;20172;-76
2022/04/12 00:58:07;;;;;;;4.50;2.70;;;12.80;52.70;;;;;;4975980;28;20622;-76
2022/04/12 01:00:34;;;;;;;4.25;2.72;;;12.80;53.40;;;;;;4973062;28;20234;-76
2022/04/12 01:03:01;;;;;;;3.83;2.90;;;12.80;53.00;;;;;;4964785;28;20195;-76
2022/04/12 01:05:27;;;;;;;6.22;2.90;;;12.80;52.90;;;;;;4972138;28;20270;-76
2022/04/12 01:07:54;;;;;;;3.90;2.50;;;12.80;53.50;;;;;;4975440;28;20227;-76
2022/04/12 01:10:20;;;;;;;3.90;2.95;;;12.80;53.20;;;;;;4975530;28;20544;-76
2022/04/12 01:12:47;;;;;;;4.43;2.60;;;12.80;53.50;;;;;;4974087;28;20667;-76
2022/04/12 01:15:18;;;;;;;4.45;2.70;;;12.80;53.70;;;;;;4975486;28;20168;-76
2022/04/12 01:17:44;;;;;;;5.00;3.38;;;12.80;53.60;;;;;;4977431;28;20172;-76
2022/04/12 01:20:12;;;;;;;5.60;3.00;;;12.80;53.70;;;;;;4966989;28;20259;-76
2022/04/12 01:22:47;;;;;;;3.85;2.03;;;12.80;54.00;;;;;;4983098;28;20218;-76
2022/04/12 01:25:12;;;;;;;3.55;2.20;;;12.80;53.70;;;;;;4983626;28;20167;-76
2022/04/12 01:27:38;;;;;;;3.13;2.30;;;12.80;53.40;;;;;;4976415;28;20186;-75
2022/04/12 01:30:04;;;;;;;4.83;2.80;;;12.90;53.70;;;;;;4979522;28;20167;-76
2022/04/12 01:32:30;;;;;;;3.55;2.63;;;12.90;53.50;;;;;;4945325;28;20286;-76
2022/04/12 01:34:56;;;;;;;4.10;2.30;;;12.90;53.50;;;;;;4975711;28;20720;-76
2022/04/12 01:37:22;;;;;;;3.73;2.60;;;12.90;53.80;;;;;;4975317;28;20164;-76
2022/04/12 01:39:47;;;;;;;3.80;2.80;;;12.90;53.90;;;;;;4975312;28;20247;-76
2022/04/12 01:42:13;;;;;;;3.53;2.30;;;12.90;54.10;;;;;;4974974;28;20200;-76
2022/04/12 01:44:39;;;;;;;5.83;3.23;;;12.90;54.00;;;;;;4974950;28;20164;-76
2022/04/12 01:47:05;;;;;;;3.73;3.00;;;12.90;53.80;;;;;;4974587;28;20625;-76
2022/04/12 01:49:30;;;;;;;4.05;2.95;;;12.90;54.00;;;;;;4973697;28;20187;-76
2022/04/12 01:52:01;;;;;;;3.13;2.53;;;12.90;54.50;;;;;;4974583;28;20168;-76
2022/04/12 01:54:27;;;;;;;4.55;2.90;;;12.90;54.00;;;;;;4973300;28;20575;-76
2022/04/12 01:56:53;;;;;;;5.30;2.90;;;12.90;54.10;;;;;;4974599;28;20172;-77
2022/04/12 01:59:19;;;;;;;4.43;2.90;;;12.90;54.50;;;;;;4974296;28;20263;-77
2022/04/12 02:01:45;;;;;;;3.30;2.63;;;12.90;54.80;;;;;;4974206;28;20413;-76
2022/04/12 02:04:10;;;;;;;2.77;2.40;;;12.90;54.30;;;;;;4973892;28;20196;-75
2022/04/12 02:06:36;;;;;;;5.43;2.87;;;12.90;54.30;;;;;;4974373;28;20179;-75
2022/04/12 02:09:02;;;;;;;3.07;2.53;;;13.00;54.30;;;;;;4974062;28;20175;-75
2022/04/12 02:11:27;;;;;;;4.77;2.70;;;12.90;54.80;;;;;;4973884;28;20175;-75
2022/04/12 02:13:53;;;;;;;3.80;2.93;;;12.90;54.90;;;;;;4972828;28;20618;-75
2022/04/12 02:16:19;;;;;;;4.63;2.53;;;13.00;54.50;;;;;;4972846;28;20180;-75
2022/04/12 02:18:45;;;;;;;2.90;2.20;;;13.00;54.60;;;;;;4973933;28;20178;-75
2022/04/12 02:21:11;;;;;;;3.97;2.73;;;13.00;54.40;;;;;;4971812;28;20207;-75
2022/04/12 02:23:36;;;;;;;3.77;2.73;;;13.00;54.50;;;;;;4963829;28;20200;-75
2022/04/12 02:26:02;;;;;;;3.50;2.47;;;13.00;54.70;;;;;;4974070;28;20176;-75
2022/04/12 02:28:28;;;;;;;3.00;2.00;;;13.00;54.60;;;;;;4973638;28;20168;-75
2022/04/12 02:30:53;;;;;;;4.43;2.97;;;13.00;54.70;;;;;;4973872;28;20190;-75
2022/04/12 02:33:19;;;;;;;3.70;2.40;;;13.00;54.80;;;;;;4973837;28;20204;-75
2022/04/12 02:35:45;;;;;;;4.40;2.50;;;13.00;55.30;;;;;;4974044;28;20251;-75
2022/04/12 02:38:10;;;;;;;4.07;2.73;;;13.00;54.90;;;;;;4972273;28;20274;-75
2022/04/12 02:40:36;;;;;;;3.40;2.10;;;13.00;55.10;;;;;;4973387;28;20263;-75
2022/04/12 02:43:02;;;;;;;2.60;2.20;;;13.00;55.30;;;;;;4972054;28;20286;-74
2022/04/12 02:45:27;;;;;;;4.80;2.30;;;13.00;54.90;;;;;;4972477;28;20172;-75
2022/04/12 02:47:53;;;;;;;3.43;2.40;;;13.00;55.70;;;;;;4973399;28;20667;-75
2022/04/12 02:50:19;;;;;;;4.57;2.10;;;13.00;55.10;;;;;;4973328;28;20234;-75
2022/04/12 02:52:44;;;;;;;3.40;2.10;;;13.00;55.00;;;;;;4966227;28;20875;-75
2022/04/12 02:55:10;;;;;;;4.10;2.97;;;13.00;55.30;;;;;;4969160;28;20188;-75
2022/04/12 02:57:36;;;;;;;4.07;2.57;;;13.00;55.30;;;;;;4971822;28;20654;-75
2022/04/12 03:00:04;;;;;;;3.80;2.30;;;13.00;55.20;;;;;;4972869;28;20204;-75
2022/04/12 03:02:29;;;;;;;2.83;2.53;;;13.00;55.30;;;;;;4973173;28;20623;-74
2022/04/12 03:04:55;;;;;;;2.50;2.10;;;13.00;55.60;;;;;;4973362;28;20243;-75
2022/04/12 03:07:21;;;;;;;4.77;2.97;;;13.00;55.50;;;;;;4964908;28;20231;-75
2022/04/12 03:09:47;;;;;;;3.40;2.63;;;13.00;55.40;;;;;;4964258;28;21134;-75
2022/04/12 03:12:12;;;;;;;3.37;2.70;;;13.00;56.10;;;;;;4972696;28;20179;-75
2022/04/12 03:14:38;;;;;;;5.40;3.43;;;13.00;56.10;;;;;;4970138;28;20624;-75
2022/04/12 03:17:04;;;;;;;5.70;2.37;;;13.00;55.90;;;;;;4969764;28;20271;-75
2022/04/12 03:19:30;;;;;;;3.78;2.45;;;13.00;56.00;;;;;;4966849;28;20184;-76
2022/04/12 03:21:56;;;;;;;3.17;2.17;;;13.10;56.00;;;;;;4951565;28;20286;-76
2022/04/12 03:24:22;;;;;;;3.60;2.57;;;13.10;55.90;;;;;;4960210;28;20196;-76
2022/04/12 03:26:49;;;;;;;3.03;2.03;;;13.00;56.30;;;;;;4955816;28;20208;-76
2022/04/12 03:29:15;;;;;;;2.67;2.20;;;13.10;55.80;;;;;;4957424;28;20916;-76
2022/04/12 03:31:41;;;;;;;3.65;2.15;;;13.10;56.20;;;;;;4950601;28;20180;-76
2022/04/12 03:34:07;;;;;;;4.57;2.27;;;13.10;56.00;;;;;;4951702;28;20195;-76
2022/04/12 03:36:33;;;;;;;4.37;2.40;;;13.10;55.90;;;;;;4952115;28;20183;-76
2022/04/12 03:38:58;;;;;;;4.83;2.50;;;13.10;55.80;;;;;;4951688;28;20584;-76
2022/04/12 03:41:24;;;;;;;2.20;1.80;;;13.10;56.10;;;;;;4951731;28;20204;-76
2022/04/12 03:43:51;;;;;;;4.18;2.47;;;13.10;55.90;;;;;;4951742;28;20184;-75
2022/04/12 03:46:17;;;;;;;3.95;2.15;;;13.10;56.60;;;;;;4950588;28;20173;-76
2022/04/12 03:48:43;;;;;;;3.47;2.33;;;13.10;56.40;;;;;;4951502;28;20168;-75
2022/04/12 03:51:10;;;;;;;2.88;2.05;;;13.10;56.30;;;;;;4951946;28;20648;-75
2022/04/12 03:53:38;;;;;;;3.28;1.90;;;13.10;56.00;;;;;;4951991;28;20219;-76
2022/04/12 03:56:07;;;;;;;2.55;1.60;;;13.10;56.00;;;;;;4952112;28;20176;-76
2022/04/12 03:58:39;;;;;;;3.33;2.20;;;13.10;56.20;;;;;;4951802;28;20243;-75
2022/04/12 04:01:05;;;;;;;3.88;2.55;;;13.00;56.40;;;;;;4952485;28;20284;-76
2022/04/12 04:03:32;;;;;;;4.10;2.30;;;12.90;57.00;;;;;;4952362;28;20298;-76
2022/04/12 04:05:57;;;;;;;3.92;2.08;;;12.90;57.30;;;;;;4953268;28;20516;-75
2022/04/12 04:08:23;;;;;;;3.87;2.33;;;12.90;56.90;;;;;;4953476;28;20180;-76
2022/04/12 04:10:49;;;;;;;4.73;2.30;;;12.90;56.80;;;;;;4951946;28;20601;-76
2022/04/12 04:13:17;;;;;;;4.13;2.22;;;12.80;56.90;;;;;;4954731;28;21143;-76
2022/04/12 04:15:43;;;;;;;3.63;2.38;;;12.80;56.70;;;;;;4955851;28;20191;-76
2022/04/12 04:18:08;;;;;;;3.50;2.43;;;12.80;57.20;;;;;;4955782;28;20177;-75
2022/04/12 04:20:35;;;;;;;3.90;1.83;;;12.80;56.90;;;;;;4956943;28;21132;-75
2022/04/12 04:23:01;;;;;;;3.05;1.80;;;12.80;56.90;;;;;;4956921;28;20659;-75
2022/04/12 04:25:27;;;;;;;6.50;2.00;;;12.70;57.00;;;;;;4956970;28;20532;-76
2022/04/12 04:27:52;;;;;;;4.65;2.58;;;12.70;56.90;;;;;;4956544;28;20563;-76
2022/04/12 04:30:19;;;;;;;3.53;2.23;;;12.70;57.10;;;;;;4956716;28;20168;-76
2022/04/12 04:32:45;;;;;;;3.83;2.30;;;12.60;57.10;;;;;;4956477;28;20185;-75
2022/04/12 04:35:11;;;;;;;2.30;1.95;;;12.60;57.70;;;;;;4956800;28;20176;-76
2022/04/12 04:37:44;;;;;;;2.77;1.70;;;12.60;57.90;;;;;;4956490;28;20169;-75
2022/04/12 04:40:14;;;;;;;2.70;1.63;;;12.60;58.80;;;;;;4956628;28;20655;-75
2022/04/12 04:42:40;;;;;;;3.53;1.52;;;12.50;58.70;;;;;;4956541;28;20546;-75
2022/04/12 04:45:07;;;;;;;3.20;1.50;;;12.50;58.50;;;;;;4955271;28;20169;-75
2022/04/12 04:47:34;;;;;;;4.97;2.47;;;12.50;59.20;;;;;;4956175;28;20678;-75
2022/04/12 04:50:01;;;;;;;4.93;2.42;;;12.50;59.50;;;;;;4956356;28;20177;-76
2022/04/12 04:52:27;;;;;;;3.03;1.75;;;12.50;60.00;;;;;;4956407;28;20203;-75
2022/04/12 04:54:53;;;;;;;2.80;2.50;;;12.50;59.40;;;;;;4955012;28;20203;-75
2022/04/12 04:57:18;;;;;;;4.07;2.83;;;12.40;60.20;;;;;;4956174;28;20172;-75
2022/04/12 04:59:44;;;;;;;2.83;1.60;;;12.50;60.30;;;;;;4956013;28;20608;-75
2022/04/12 05:02:10;;;;;;;4.37;2.50;;;12.50;59.90;;;;;;4963608;28;20263;-75
2022/04/12 05:04:35;;;;;;;5.23;2.67;;;12.50;60.40;;;;;;4974465;28;20179;-76
2022/04/12 05:07:01;;;;;;;3.53;2.30;;;12.50;59.80;;;;;;4974265;28;20186;-75
2022/04/12 05:09:27;;;;;;;4.20;2.23;;;12.50;59.80;;;;;;4975133;28;20267;-75
2022/04/12 05:11:52;;;;;;;4.83;2.77;;;12.50;59.80;;;;;;4975225;28;20176;-75
2022/04/12 05:14:19;;;;;;;3.40;2.00;;;12.50;60.30;;;;;;4975318;28;20294;-75
2022/04/12 05:16:44;;;;;;;5.18;3.05;;;12.50;60.90;;;;;;4975392;28;20172;-75
2022/04/12 05:19:10;;;;;;;4.87;2.90;;;12.50;60.30;;;;;;4975197;28;20168;-75
2022/04/12 05:21:36;;;;;;;3.10;2.20;;;12.50;60.50;;;;;;4973927;28;20283;-75
2022/04/12 05:24:03;;;;;;;3.53;1.90;;;12.50;60.00;;;;;;4975009;28;20188;-75
2022/04/12 05:26:28;;;;;;;5.25;2.38;;;12.60;60.50;;;;;;4973868;28;20179;-75
2022/04/12 05:28:54;;;;;;;3.50;1.93;;;12.60;60.80;;;;;;4974498;28;20171;-75
2022/04/12 05:31:20;;;;;;;4.00;2.97;;;12.60;60.80;;;;;;4973442;28;20176;-75
2022/04/12 05:33:46;;;;;;;4.03;2.80;;;12.60;60.40;;;;;;4973312;28;20195;-75
2022/04/12 05:36:11;;;;;;;5.63;2.73;;;12.60;61.10;;;;;;4973782;28;20202;-75
2022/04/12 05:38:37;;;;;;;2.90;1.87;;;12.60;61.30;;;;;;4973586;28;21338;-76
2022/04/12 05:41:02;;;;;;;9.73;2.20;;;12.60;61.60;;;;;;4973441;28;20195;-75
2022/04/12 05:43:28;;;;;;;5.70;2.20;;;12.60;61.50;;;;;;4973595;28;20246;-75
2022/04/12 05:45:54;;;;;;;4.03;2.40;;;12.60;61.30;;;;;;4959149;28;20176;-76
2022/04/12 05:48:19;;;;;;;2.57;1.77;;;12.70;61.20;;;;;;4952706;28;20176;-76
2022/04/12 05:50:45;;;;;;;3.87;2.70;;;12.70;61.60;;;;;;4952490;29;20188;-75
2022/04/12 05:53:11;;;;;;;5.20;2.37;;;12.80;61.50;;;;;;4955081;28;21298;-76
2022/04/12 05:55:37;;;;;;;4.83;2.40;;;12.90;61.40;;;;;;4953875;28;20267;-75
2022/04/12 05:58:06;;;;;;;4.20;2.53;;;12.90;61.70;;;;;;4955113;29;20177;-75
2022/04/12 06:00:33;;;;;;;2.72;1.95;;;13.00;61.50;;;;;;4954801;29;20195;-74
2022/04/12 06:03:00;;;;;;;4.65;3.13;;;13.10;61.70;;;;;;4954252;28;20197;-76
2022/04/12 06:05:30;;;;;;;3.25;1.95;;;13.20;61.50;;;;;;4955021;29;20814;-75
2022/04/12 06:07:56;;;;;;;6.97;2.00;;;13.20;61.40;;;;;;4954438;29;20165;-75
2022/04/12 06:10:23;;;;;;;7.20;2.77;;;13.30;61.10;;;;;;4954379;29;20515;-75
2022/04/12 06:12:51;;;;;;;2.80;2.08;;;13.40;61.40;;;;;;4954554;28;20595;-75
2022/04/12 06:15:17;;;;;;;3.30;2.63;;;13.50;61.40;;;;;;4954313;29;20279;-75
2022/04/12 06:17:43;;;;;;;3.95;2.80;;;13.60;61.40;;;;;;4953510;28;20177;-75
2022/04/12 06:20:13;;;;;;;3.83;2.93;;;13.70;61.30;;;;;;4954378;29;20240;-75
2022/04/12 06:22:39;;;;;;;4.00;3.00;;;13.90;61.30;;;;;;4937115;29;20204;-75
2022/04/12 06:25:06;;;;;;;2.78;1.92;;;14.00;61.50;;;;;;4952876;29;20172;-74
2022/04/12 06:27:43;;;;;;;8.30;2.47;;;14.10;61.00;;;;;;4953896;29;20234;-75
2022/04/12 06:30:16;;;;;;;5.97;2.55;;;14.20;60.90;;;;;;4953966;29;20582;-76
2022/04/12 06:32:43;;;;;;;3.22;2.25;;;14.30;60.40;;;;;;4936980;29;20208;-75
2022/04/12 06:35:11;;;;;;;4.78;2.97;;;14.30;60.30;;;;;;4953420;28;20165;-76
2022/04/12 06:37:39;;;;;;;3.80;3.20;;;14.30;60.20;;;;;;4955893;28;20187;-75
2022/04/12 06:40:07;;;;;;;3.95;2.40;;;14.40;60.30;;;;;;4963769;28;20843;-75
2022/04/12 06:42:33;;;;;;;4.93;2.88;;;14.40;60.10;;;;;;4972789;28;20195;-75
2022/04/12 06:44:58;;;;;;;5.87;3.23;;;14.50;60.30;;;;;;4968375;28;20585;-76
2022/04/12 06:47:24;;;;;;;3.37;2.30;;;14.50;59.90;;;;;;4953739;29;21133;-76
2022/04/12 06:49:51;;;;;;;4.20;2.70;;;14.70;60.40;;;;;;4953839;29;20255;-75
2022/04/12 06:52:19;;;;;;;5.97;2.63;;;14.90;60.50;;;;;;4953838;28;20183;-74
2022/04/12 06:54:45;;;;;;;3.55;2.78;;;15.10;60.10;;;;;;4953709;29;21427;-75
2022/04/12 06:57:11;;;;;;;5.43;2.67;;;15.30;59.90;;;;;;4952249;29;20721;-75
2022/04/12 06:59:37;;;;;;;4.73;2.87;;;15.50;59.70;;;;;;4951955;28;20679;-75
2022/04/12 07:02:04;;;;;;;4.10;2.77;;;15.80;59.70;;;;;;4968506;28;20626;-76
2022/04/12 07:04:30;;;;;;;3.60;2.60;;;16.10;59.60;;;;;;4958506;28;20608;-75
2022/04/12 07:06:56;;;;;;;3.50;2.40;;;16.50;60.80;;;;;;4953913;29;20571;-75
2022/04/12 07:09:23;;;;;;;4.20;2.50;;;16.80;58.90;;;;;;4953265;29;20931;-76
2022/04/12 07:11:50;;;;;;;5.70;3.83;;;17.10;59.30;;;;;;4953496;29;20963;-75
2022/04/12 07:14:16;;;;;;;5.33;2.70;;;17.20;57.30;;;;;;4936069;29;20639;-76
2022/04/12 07:16:42;;;;;;;5.13;3.37;;;17.30;57.10;;;;;;4949649;28;20624;-76
2022/04/12 07:19:08;;;;;;;4.80;3.10;;;17.40;57.00;;;;;;4950806;28;20591;-76
2022/04/12 07:21:34;;;;;;;4.33;3.03;;;17.60;57.30;;;;;;4951485;28;20275;-76
2022/04/12 07:24:01;;;;;;;5.13;2.00;;;17.90;57.00;;;;;;4950635;28;20584;-75
2022/04/12 07:26:27;;;;;;;3.00;2.13;;;18.20;57.10;;;;;;4951980;28;20579;-75
2022/04/12 07:28:52;;;;;;;3.43;2.40;;;18.40;56.40;;;;;;4952648;28;21009;-74
2022/04/12 07:31:18;;;;;;;5.60;2.23;;;18.50;55.90;;;;;;4953083;29;20592;-75
2022/04/12 07:33:44;;;;;;;3.23;2.47;;;18.70;56.40;;;;;;4953289;28;20867;-76
2022/04/12 07:36:10;;;;;;;5.03;3.70;;;18.80;55.30;;;;;;4952981;29;20645;-76
2022/04/12 07:38:36;;;;;;;5.67;2.77;;;18.90;55.30;;;;;;4950893;28;21015;-75
2022/04/12 07:41:02;;;;;;;4.20;2.60;;;19.20;56.00;;;;;;4952690;29;20624;-76
2022/04/12 07:43:28;;;;;;;4.60;2.20;;;19.70;56.10;;;;;;4953054;28;20197;-75
2022/04/12 07:45:53;;;;;;;4.47;2.10;;;20.20;57.30;;;;;;4950630;29;20583;-75
2022/04/12 07:48:19;;;;;;;4.33;2.50;;;21.00;56.60;;;;;;4951040;28;20234;-75
2022/04/12 07:50:45;;;;;;;4.00;2.20;;;21.70;56.30;;;;;;4952030;28;20195;-75
2022/04/12 07:53:10;;;;;;;2.60;2.07;;;22.20;56.10;;;;;;4952905;28;20199;-75
2022/04/12 07:55:36;;;;;;;4.30;2.60;;;22.70;53.70;;;;;;4952840;28;20215;-76
2022/04/12 07:58:02;;;;;;;5.33;2.10;;;22.80;53.40;;;;;;4952754;28;20168;-76
2022/04/12 08:00:27;;;;;;;3.47;2.20;;;23.30;53.20;;;;;;4952207;28;20488;-76
2022/04/12 08:02:53;;;;;;;5.97;2.37;;;23.60;52.40;;;;;;4952137;28;20194;-76
2022/04/12 08:05:19;;;;;;;3.30;2.10;;;23.90;51.70;;;;;;4951943;28;20192;-75
2022/04/12 08:07:47;;;;;;;2.73;1.83;;;24.00;51.10;;;;;;4966403;28;20611;-75
2022/04/12 08:10:15;;;;;;;4.07;2.17;;;24.30;51.70;;;;;;4951850;28;20568;-76
2022/04/12 08:12:42;;;;;;;5.77;3.10;;;24.40;50.00;;;;;;4951910;28;20707;-76
2022/04/12 08:15:12;;;;;;;5.00;2.40;;;24.50;49.70;;;;;;4951787;28;20662;-76
2022/04/12 08:17:38;;;;;;;3.93;2.10;;;24.40;49.70;;;;;;4951374;28;20564;-76
2022/04/12 08:20:08;;;;;;;3.03;2.17;;;24.50;48.20;;;;;;4952596;28;20568;-75
2022/04/12 08:22:34;;;;;;;3.67;2.77;;;24.30;47.40;;;;;;4935017;29;20639;-76
2022/04/12 08:25:00;;;;;;;2.93;2.27;;;24.30;47.60;;;;;;4952420;28;20989;-76
2022/04/12 08:27:26;;;;;;;2.43;2.10;;;24.30;47.40;;;;;;4949891;28;20169;-76
2022/04/12 08:29:52;;;;;;;4.37;2.60;;;24.50;47.60;;;;;;4950980;28;21010;-76
2022/04/12 08:32:18;;;;;;;2.80;2.17;;;24.70;48.00;;;;;;4949791;28;21195;-76
2022/04/12 08:34:45;;;;;;;3.30;2.57;;;25.10;48.00;;;;;;4952809;29;20572;-75
2022/04/12 08:37:11;;;;;;;3.83;2.47;;;25.50;47.60;;;;;;4952721;29;20564;-76
2022/04/12 08:39:37;;;;;;;2.83;2.00;;;25.90;47.60;;;;;;4936439;29;20626;-76
2022/04/12 08:42:04;;;;;;;3.40;2.40;;;26.50;47.90;;;;;;4950466;29;20647;-75
2022/04/12 08:44:32;;;;;;;2.77;1.60;;;27.10;47.20;;;;;;4953008;28;20732;-76
2022/04/12 08:47:01;;;;;;;4.63;2.50;;;27.50;46.60;;;;;;4952705;28;20564;-75
2022/04/12 08:49:28;;;;;;;4.23;1.50;;;27.70;46.10;;;;;;4952248;28;20564;-75
2022/04/12 08:51:54;;;;;;;2.83;2.10;;;27.80;45.60;;;;;;4952406;28;20677;-75
2022/04/12 08:54:20;;;;;;;3.13;1.97;;;27.90;44.10;;;;;;4952608;28;20771;-75
2022/04/12 08:56:51;;;;;;;3.87;2.10;;;27.80;43.80;;;;;;4935285;28;20176;-76
2022/04/12 08:59:18;;;;;;;4.43;2.03;;;27.60;44.00;;;;;;4953845;28;20620;-76
2022/04/12 09:01:44;;;;;;;3.20;2.10;;;27.40;43.50;;;;;;4955858;28;21489;-76
2022/04/12 09:04:10;;;;;;;2.63;1.70;;;27.10;43.40;;;;;;4954893;28;20600;-75
2022/04/12 09:06:54;;;;;;;2.90;1.47;;;27.10;44.20;;;;;;4955658;28;21064;-76
2022/04/12 09:09:24;;;;;;;2.87;1.60;;;27.20;44.20;;;;;;4954386;28;20575;-77
2022/04/12 09:12:09;;;;;;;2.60;1.50;;;27.30;44.60;;;;;;4955689;28;20579;-75
2022/04/12 09:14:56;;;;;;;2.13;1.43;;;27.70;45.30;;;;;;4955976;28;20574;-75
2022/04/12 09:17:36;;;;;;;2.40;1.70;;;28.20;44.60;;;;;;4956262;28;20570;-76
2022/04/12 09:20:18;;;;;;;3.87;1.60;;;28.50;42.70;;;;;;4956459;28;20572;-76
2022/04/12 09:22:45;;;;;;;3.20;1.97;;;28.60;42.90;;;;;;4955849;28;21268;-76
2022/04/12 09:25:13;;;;;;;7.00;2.10;;;28.50;41.80;;;;;;4956702;28;20667;-76
2022/04/12 09:27:40;;;;;;;3.40;2.10;;;28.60;42.90;;;;;;4954548;28;21011;-75
2022/04/12 09:30:12;;;;;;;2.37;1.70;;;28.80;41.70;;;;;;4955783;28;20666;-75
2022/04/12 09:32:45;;;;;;;3.50;1.63;;;28.90;41.80;;;;;;4955338;28;20611;-76
2022/04/12 09:35:11;;;;;;;3.93;1.70;;;29.20;42.00;;;;;;4955959;28;20956;-76
2022/04/12 09:37:40;;;;;;;4.97;2.00;;;29.30;41.80;;;;;;4957707;28;20625;-76
2022/04/12 09:40:08;;;;;;;3.03;1.83;;;29.40;41.20;;;;;;4958169;28;20915;-75
2022/04/12 09:42:42;;;;;;;5.97;1.63;;;29.40;40.30;;;;;;4956758;28;20635;-76
2022/04/12 09:45:13;;;;;;;3.43;1.83;;;28.90;38.80;;;;;;4957465;28;20596;-76
2022/04/12 09:47:40;;;;;;;3.03;1.90;;;28.50;39.00;;;;;;4958056;28;20956;-76
2022/04/12 09:50:08;;;;;;;3.40;1.77;;;28.10;38.80;;;;;;4956431;29;20579;-76
2022/04/12 09:52:34;;;;;;;3.50;2.40;;;28.10;39.60;;;;;;4955287;28;20600;-76
2022/04/12 09:54:59;;;;;;;2.43;1.83;;;28.10;38.80;;;;;;4955504;28;20690;-76
2022/04/12 09:57:26;;;;;;;3.43;1.73;;;28.10;39.00;;;;;;4954189;28;20679;-75
2022/04/12 09:59:56;;;;;;;2.37;2.00;;;28.00;39.20;;;;;;4954017;28;20177;-75
2022/04/12 10:02:27;;;;;;;4.27;2.27;;;27.80;39.00;;;;;;4954933;28;20631;-74
2022/04/12 10:04:56;;;;;;;3.30;1.60;;;27.90;39.70;;;;;;4954847;28;20576;-74
2022/04/12 10:07:23;;;;;;;3.53;1.70;;;27.80;39.00;;;;;;4954417;28;20580;-74
2022/04/12 10:09:51;;;;;;;3.07;1.90;;;27.70;38.90;;;;;;4954107;28;20565;-74
2022/04/12 10:12:18;;;;;;;3.07;1.47;;;27.80;39.70;;;;;;4953397;28;20630;-75
2022/04/12 10:14:45;;;;;;;2.73;1.80;;;28.00;39.60;;;;;;4954536;28;20569;-76
2022/04/12 10:17:14;;;;;;;2.73;1.40;;;28.20;39.50;;;;;;4954302;28;20580;-75
2022/04/12 10:19:41;;;;;;;3.07;1.50;;;28.30;40.00;;;;;;4954120;28;20592;-75
2022/04/12 10:22:08;;;;;;;2.40;1.30;;;28.60;40.00;;;;;;4954505;28;20619;-75
2022/04/12 10:24:35;;;;;;;2.47;1.77;;;28.80;39.60;;;;;;4952813;28;20607;-75
2022/04/12 10:27:02;;;;;;;4.77;1.70;;;28.60;38.80;;;;;;4952816;28;20593;-75
2022/04/12 10:29:28;;;;;;;5.27;1.70;;;28.50;38.80;;;;;;4953287;29;20602;-75
2022/04/12 10:31:58;;;;;;;3.43;1.57;;;28.40;39.20;;;;;;4954161;28;20612;-75
2022/04/12 10:34:24;;;;;;;1.77;1.03;;;28.00;38.80;;;;;;4953848;28;20196;-76
2022/04/12 10:37:05;;;;;;;5.13;2.00;;;27.90;39.30;;;;;;4954206;28;20925;-74
2022/04/12 10:39:46;;;;;;;2.30;0.90;;;27.90;39.60;;;;;;4953888;28;20683;-74
2022/04/12 10:42:17;;;;;;;1.90;1.10;;;28.00;39.70;;;;;;4954025;28;20659;-74
2022/04/12 10:44:56;;;;;;;3.20;1.00;;;27.90;39.90;;;;;;4953869;28;20679;-74
2022/04/12 10:47:35;;;;;;;2.60;0.90;;;27.60;39.90;;;;;;4968518;28;20574;-74
2022/04/12 10:50:04;;;;;;;3.00;1.23;;;27.60;40.00;;;;;;4953645;28;20611;-74
2022/04/12 10:52:39;;;;;;;2.13;0.90;;;27.40;39.60;;;;;;4953864;28;21101;-74
2022/04/12 10:55:07;;;;;;;3.13;1.23;;;27.20;39.40;;;;;;4952526;28;20723;-74
2022/04/12 10:57:34;;;;;;;3.50;2.00;;;27.20;40.00;;;;;;4953657;28;20599;-74
2022/04/12 11:00:12;;;;;;;3.43;1.50;;;27.10;39.90;;;;;;4952006;28;20724;-74
2022/04/12 11:02:56;;;;;;;2.83;1.33;;;27.10;40.00;;;;;;4953602;28;20722;-74
2022/04/12 11:05:37;;;;;;;1.60;0.80;;;27.10;39.70;;;;;;4952153;28;20615;-73
2022/04/12 11:08:15;;;;;;;4.37;1.53;;;27.20;39.80;;;;;;4953616;28;20568;-73
2022/04/12 11:10:54;;;;;;;2.13;0.93;;;27.40;39.70;;;;;;4953405;28;21116;-73
2022/04/12 11:13:22;;;;;;;2.70;1.00;;;27.50;39.10;;;;;;4953569;28;20603;-73
2022/04/12 11:15:55;;;;;;;1.60;1.00;;;27.80;39.80;;;;;;4953676;28;20611;-75
2022/04/12 11:18:45;;;;;;;1.97;1.10;;;27.80;38.40;;;;;;4948809;28;20590;-75
2022/04/12 11:21:11;;;;;;;3.80;1.40;;;27.70;38.00;;;;;;4950505;28;20634;-75
2022/04/12 11:23:47;;;;;;;3.73;0.93;;;27.60;38.40;;;;;;4953442;28;21230;-74
2022/04/12 11:26:37;;;;;;;1.63;0.70;;;27.50;38.60;;;;;;4953417;28;20296;-75
2022/04/12 11:29:26;;;;;;;3.10;1.10;;;27.80;38.80;;;;;;4952567;28;20623;-75
2022/04/12 11:31:56;;;;;;;5.00;0.90;;;27.80;38.50;;;;;;4957946;28;20594;-75
2022/04/12 11:34:24;;;;;;;2.53;0.80;;;27.80;38.60;;;;;;4972369;28;20599;-76
2022/04/12 11:36:51;;;;;;;3.87;0.90;;;27.70;38.90;;;;;;4957897;28;20591;-75
2022/04/12 11:39:25;;;;;;;1.70;0.87;;;27.70;38.80;;;;;;4956313;28;20650;-75
2022/04/12 11:42:03;;;;;;;1.70;0.90;;;27.70;38.80;;;;;;4916535;29;20632;-75
2022/04/12 11:44:30;;;;;;;1.30;0.70;;;27.60;38.80;;;;;;4934619;28;20604;-75
2022/04/12 11:46:56;;;;;;;2.33;0.90;;;27.50;38.70;;;;;;4960739;28;20585;-76
2022/04/12 11:49:30;;;;;;;4.97;1.13;;;27.50;38.50;;;;;;4968744;28;20575;-75
2022/04/12 11:52:00;;;;;;;2.50;1.57;;;27.30;38.60;;;;;;4957549;28;20268;-75
2022/04/12 11:54:32;;;;;;;4.90;1.40;;;27.20;39.00;;;;;;4960493;28;20686;-75
2022/04/12 11:57:06;;;;;;;2.00;0.90;;;27.30;39.20;;;;;;4965995;28;20591;-76
2022/04/12 11:59:37;;;;;;;2.10;1.00;;;27.20;39.10;;;;;;4971845;28;20971;-75
2022/04/12 12:02:05;;;;;;;3.47;1.40;;;27.20;39.20;;;;;;4971699;28;20618;-75
2022/04/12 12:04:33;;;;;;;7.53;1.10;;;27.20;39.20;;;;;;4969247;28;20627;-74
2022/04/12 12:07:02;;;;;;;2.27;1.20;;;27.20;39.40;;;;;;4957713;28;20589;-75
2022/04/12 12:09:28;;;;;;;2.03;0.80;;;27.30;39.20;;;;;;4961181;28;20664;-75
2022/04/12 12:11:58;;;;;;;2.80;0.90;;;27.30;39.50;;;;;;4972612;28;20610;-75
2022/04/12 12:14:27;;;;;;;1.80;0.90;;;27.40;39.20;;;;;;4972197;28;21047;-76
2022/04/12 12:17:02;;;;;;;2.50;1.00;;;27.50;39.50;;;;;;4970923;28;20611;-76
2022/04/12 12:19:28;;;;;;;2.30;0.90;;;27.50;39.40;;;;;;4971725;28;20649;-76
2022/04/12 12:21:55;;;;;;;2.50;0.70;;;27.50;39.00;;;;;;4970217;28;20626;-75
2022/04/12 12:24:21;;;;;;;2.37;0.80;;;27.40;39.60;;;;;;4972454;28;20599;-75
2022/04/12 12:26:54;;;;;;;3.83;0.90;;;27.30;38.80;;;;;;4964435;28;21285;-75
2022/04/12 12:29:21;;;;;;;3.37;1.00;;;27.10;38.60;;;;;;4951811;28;20211;-75
2022/04/12 12:31:47;;;;;;;2.10;0.80;;;26.90;38.70;;;;;;4960040;28;20631;-75
2022/04/12 12:34:26;;;;;;;4.83;1.00;;;26.70;38.80;;;;;;4954107;28;20643;-75
2022/04/12 12:36:52;;;;;;;1.40;0.70;;;26.40;38.90;;;;;;4947514;28;21143;-76
2022/04/12 12:39:18;;;;;;;2.47;0.97;;;26.20;38.80;;;;;;4971779;28;20598;-76
2022/04/12 12:41:44;;;;;;;4.00;0.90;;;26.00;39.30;;;;;;4966581;28;20202;-75
2022/04/12 12:44:10;;;;;;;2.70;1.30;;;25.70;39.60;;;;;;4967914;28;21174;-76
2022/04/12 12:46:38;;;;;;;2.13;0.70;;;25.60;39.70;;;;;;4958028;28;20240;-75
2022/04/12 12:49:12;;;;;;;4.13;0.77;;;25.60;40.00;;;;;;4959989;28;20173;-75
2022/04/12 12:51:40;;;;;;;2.43;0.80;;;25.50;40.40;;;;;;4954182;28;20580;-74
2022/04/12 12:54:09;;;;;;;2.87;0.80;;;25.50;40.20;;;;;;4930813;29;20734;-75